Station Historical Data
Daily Summary for March 2, 2017 Units:  English    Metric   Both
« Previous Day
Next Day »
Daily Weekly Monthly Yearly Custom
  High: Low: Average:
Temperature: 36.0 °F 22.6 °F 27 °F
Dew Point: 28.8 °F 12.5 °F 16.9 °F
Humidity: 84% 49% 66%
Wind Speed: 20.0mph 1.0mph 8.3mph
Wind Gust: 30.0mph - -
Wind- - West
Pressure: 30.23 in 29.50 in -
Precipitation: 0.00 in    
Historical Graphs
 
 
Tabular Data for March 2, 2017
Time Temperature Dew Point Pressure Wind Wind Speed Wind Gust Humidity Rainfall Rate (Hourly)
00:04 36.0 °F 28.8 °F 29.50 in West 9.0 mph 18.0 mph 75% 0.00 in
00:09 35.8 °F 28.3 °F 29.50 in WSW 9.0 mph 18.0 mph 74% 0.00 in
00:14 35.6 °F 28.5 °F 29.50 in West 8.0 mph 17.0 mph 75% 0.00 in
00:19 35.2 °F 27.7 °F 29.51 in West 10.0 mph 22.0 mph 74% 0.00 in
00:24 34.8 °F 27.0 °F 29.51 in West 13.0 mph 28.0 mph 73% 0.00 in
00:29 34.5 °F 26.7 °F 29.51 in WNW 12.0 mph 30.0 mph 73% 0.00 in
00:34 34.1 °F 26.7 °F 29.52 in WSW 6.0 mph 18.0 mph 74% 0.00 in
00:39 33.9 °F 26.5 °F 29.53 in West 17.0 mph 20.0 mph 74% 0.00 in
00:44 33.4 °F 25.3 °F 29.53 in West 11.0 mph 23.0 mph 72% 0.00 in
00:49 33.2 °F 25.1 °F 29.53 in West 12.0 mph 23.0 mph 72% 0.00 in
00:54 33.0 °F 24.3 °F 29.54 in WSW 12.0 mph 26.0 mph 70% 0.00 in
00:59 32.6 °F 23.6 °F 29.54 in West 15.0 mph 28.0 mph 69% 0.00 in
01:04 32.4 °F 24.0 °F 29.54 in NW 8.0 mph 23.0 mph 71% 0.00 in
01:09 32.4 °F 24.4 °F 29.55 in WSW 7.0 mph 19.0 mph 72% 0.00 in
01:14 31.9 °F 24.2 °F 29.55 in West 11.0 mph 23.0 mph 73% 0.00 in
01:19 31.6 °F 24.3 °F 29.56 in West 12.0 mph 23.0 mph 74% 0.00 in
01:24 31.1 °F 24.4 °F 29.56 in West 12.0 mph 22.0 mph 76% 0.00 in
01:29 30.4 °F 24.7 °F 29.57 in West 11.0 mph 22.0 mph 79% 0.00 in
01:34 29.9 °F 24.5 °F 29.57 in WSW 15.0 mph 23.0 mph 80% 0.00 in
01:39 29.5 °F 24.7 °F 29.57 in WSW 5.0 mph 17.0 mph 82% 0.00 in
01:44 29.3 °F 24.8 °F 29.58 in West 9.0 mph 19.0 mph 83% 0.00 in
01:49 29.1 °F 24.9 °F 29.58 in West 9.0 mph 19.0 mph 84% 0.00 in
01:54 29.0 °F 24.8 °F 29.58 in West 8.0 mph 18.0 mph 84% 0.00 in
01:59 29.0 °F 23.9 °F 29.58 in West 6.0 mph 22.0 mph 81% 0.00 in
02:04 29.2 °F 22.3 °F 29.58 in SSW 7.0 mph 25.0 mph 75% 0.00 in
02:09 29.2 °F 21.6 °F 29.59 in WNW 7.0 mph 24.0 mph 73% 0.00 in
02:14 29.3 °F 21.7 °F 29.60 in WNW 9.0 mph 17.0 mph 73% 0.00 in
02:19 29.0 °F 19.4 °F 29.60 in West 11.0 mph 29.0 mph 67% 0.00 in
02:24 28.7 °F 18.1 °F 29.61 in West 15.0 mph 29.0 mph 64% 0.00 in
02:29 28.4 °F 18.1 °F 29.61 in West 14.0 mph 29.0 mph 65% 0.00 in
02:34 28.1 °F 18.2 °F 29.62 in West 12.0 mph 27.0 mph 66% 0.00 in
02:39 27.7 °F 18.2 °F 29.63 in NNW 8.0 mph 30.0 mph 67% 0.00 in
02:44 27.4 °F 17.5 °F 29.63 in WSW 7.0 mph 27.0 mph 66% 0.00 in
02:49 27.1 °F 16.2 °F 29.64 in West 14.0 mph 27.0 mph 63% 0.00 in
02:54 26.9 °F 16.3 °F 29.64 in West 13.0 mph 27.0 mph 64% 0.00 in
02:59 26.7 °F 15.4 °F 29.65 in West 13.0 mph 24.0 mph 62% 0.00 in
03:04 26.6 °F 15.7 °F 29.66 in West 13.0 mph 26.0 mph 63% 0.00 in
03:09 26.4 °F 15.5 °F 29.67 in West 12.0 mph 26.0 mph 63% 0.00 in
03:14 25.9 °F 17.5 °F 29.67 in WNW 8.0 mph 21.0 mph 70% 0.00 in
03:19 25.1 °F 18.3 °F 29.68 in WNW 8.0 mph 22.0 mph 75% 0.00 in
03:24 24.7 °F 18.2 °F 29.68 in WNW 11.0 mph 25.0 mph 76% 0.00 in
03:29 24.7 °F 18.2 °F 29.69 in West 11.0 mph 25.0 mph 76% 0.00 in
03:34 24.8 °F 17.7 °F 29.69 in WNW 16.0 mph 22.0 mph 74% 0.00 in
03:39 24.3 °F 18.1 °F 29.70 in WNW 20.0 mph 20.0 mph 77% 0.00 in
03:44 23.7 °F 18.4 °F 29.71 in WSW 10.0 mph 21.0 mph 80% 0.00 in
03:49 23.4 °F 18.4 °F 29.71 in West 8.0 mph 20.0 mph 81% 0.00 in
03:54 23.4 °F 18.1 °F 29.72 in WNW 7.0 mph 20.0 mph 80% 0.00 in
03:59 23.4 °F 18.1 °F 29.72 in West 11.0 mph 21.0 mph 80% 0.00 in
04:04 23.5 °F 17.9 °F 29.73 in West 11.0 mph 21.0 mph 79% 0.00 in
04:09 23.6 °F 17.4 °F 29.73 in West 11.0 mph 20.0 mph 77% 0.00 in
04:14 23.7 °F 16.9 °F 29.74 in West 11.0 mph 20.0 mph 75% 0.00 in
04:19 23.7 °F 16.3 °F 29.75 in West 15.0 mph 20.0 mph 73% 0.00 in
04:24 23.6 °F 16.5 °F 29.75 in West 11.0 mph 20.0 mph 74% 0.00 in
04:29 23.5 °F 16.1 °F 29.75 in WSW 14.0 mph 20.0 mph 73% 0.00 in
04:34 23.5 °F 15.5 °F 29.76 in West 14.0 mph 22.0 mph 71% 0.00 in
04:39 23.4 °F 15.1 °F 29.76 in West 17.0 mph 21.0 mph 70% 0.00 in
04:44 23.4 °F 15.4 °F 29.76 in NW 7.0 mph 20.0 mph 71% 0.00 in
04:49 23.4 °F 15.7 °F 29.77 in WSW 6.0 mph 17.0 mph 72% 0.00 in
04:54 23.4 °F 15.7 °F 29.78 in West 10.0 mph 21.0 mph 72% 0.00 in
04:59 23.1 °F 15.7 °F 29.78 in West 11.0 mph 25.0 mph 73% 0.00 in
05:04 23.1 °F 15.4 °F 29.79 in West 11.0 mph 25.0 mph 72% 0.00 in
05:09 23.0 °F 15.9 °F 29.79 in West 11.0 mph 21.0 mph 74% 0.00 in
05:14 22.9 °F 15.8 °F 29.79 in West 11.0 mph 20.0 mph 74% 0.00 in
05:19 22.9 °F 16.2 °F 29.81 in West 12.0 mph 25.0 mph 75% 0.00 in
05:24 22.8 °F 15.8 °F 29.81 in West 11.0 mph 25.0 mph 74% 0.00 in
05:29 23.0 °F 15.9 °F 29.81 in West 15.0 mph 21.0 mph 74% 0.00 in
05:34 22.8 °F 14.8 °F 29.82 in West 7.0 mph 20.0 mph 71% 0.00 in
05:39 22.9 °F 14.9 °F 29.82 in WNW 9.0 mph 22.0 mph 71% 0.00 in
05:44 22.8 °F 14.8 °F 29.82 in SW 9.0 mph 22.0 mph 71% 0.00 in
05:49 22.8 °F 15.1 °F 29.83 in West 6.0 mph 21.0 mph 72% 0.00 in
05:54 22.8 °F 15.1 °F 29.83 in WNW 6.0 mph 15.0 mph 72% 0.00 in
05:59 22.8 °F 14.8 °F 29.83 in West 8.0 mph 17.0 mph 71% 0.00 in
06:04 22.9 °F 14.9 °F 29.84 in West 10.0 mph 19.0 mph 71% 0.00 in
06:09 22.8 °F 14.5 °F 29.84 in West 11.0 mph 21.0 mph 70% 0.00 in
06:14 22.8 °F 14.5 °F 29.85 in West 10.0 mph 21.0 mph 70% 0.00 in
06:19 22.8 °F 14.5 °F 29.85 in West 11.0 mph 20.0 mph 70% 0.00 in
06:24 22.8 °F 14.5 °F 29.86 in West 12.0 mph 21.0 mph 70% 0.00 in
06:29 22.8 °F 14.8 °F 29.86 in WSW 7.0 mph 19.0 mph 71% 0.00 in
06:34 22.7 °F 14.7 °F 29.86 in West 10.0 mph 21.0 mph 71% 0.00 in
06:39 22.7 °F 14.7 °F 29.87 in West 11.0 mph 22.0 mph 71% 0.00 in
06:44 22.6 °F 14.6 °F 29.87 in WSW 9.0 mph 16.0 mph 71% 0.00 in
06:49 22.7 °F 14.7 °F 29.87 in WNW 10.0 mph 19.0 mph 71% 0.00 in
06:54 22.7 °F 15.0 °F 29.87 in SSW 6.0 mph 21.0 mph 72% 0.00 in
06:59 22.7 °F 15.0 °F 29.88 in West 8.0 mph 16.0 mph 72% 0.00 in
07:04 22.7 °F 14.7 °F 29.88 in West 9.0 mph 16.0 mph 71% 0.00 in
07:09 22.7 °F 15.0 °F 29.89 in WNW 9.0 mph 16.0 mph 72% 0.00 in
07:14 22.9 °F 15.2 °F 29.89 in West 8.0 mph 16.0 mph 72% 0.00 in
07:19 23.0 °F 15.0 °F 29.90 in West 8.0 mph 20.0 mph 71% 0.00 in
07:24 23.1 °F 15.1 °F 29.90 in WNW 7.0 mph 18.0 mph 71% 0.00 in
07:29 23.3 °F 15.3 °F 29.90 in NW 11.0 mph 14.0 mph 71% 0.00 in
07:34 23.4 °F 15.7 °F 29.91 in WSW 12.0 mph 15.0 mph 72% 0.00 in
07:39 23.3 °F 15.6 °F 29.91 in WNW 9.0 mph 18.0 mph 72% 0.00 in
07:44 23.3 °F 15.6 °F 29.92 in West 14.0 mph 15.0 mph 72% 0.00 in
07:49 23.3 °F 15.6 °F 29.92 in West 8.0 mph 16.0 mph 72% 0.00 in
07:54 23.4 °F 15.7 °F 29.92 in West 6.0 mph 14.0 mph 72% 0.00 in
07:59 23.4 °F 15.7 °F 29.93 in WNW 3.0 mph 13.0 mph 72% 0.00 in
08:04 23.2 °F 15.5 °F 29.93 in WSW 5.0 mph 15.0 mph 72% 0.00 in
08:09 23.1 °F 15.7 °F 29.93 in West 8.0 mph 15.0 mph 73% 0.00 in
08:14 23.2 °F 15.5 °F 29.93 in West 8.0 mph 17.0 mph 72% 0.00 in
08:19 23.5 °F 15.8 °F 29.93 in West 8.0 mph 17.0 mph 72% 0.00 in
08:24 23.5 °F 15.5 °F 29.94 in West 8.0 mph 18.0 mph 71% 0.00 in
08:29 23.7 °F 16.0 °F 29.94 in West 8.0 mph 18.0 mph 72% 0.00 in
08:34 23.8 °F 15.8 °F 29.95 in West 9.0 mph 19.0 mph 71% 0.00 in
08:39 24.0 °F 16.0 °F 29.95 in WNW 5.0 mph 14.0 mph 71% 0.00 in
08:44 24.3 °F 16.2 °F 29.95 in West 7.0 mph 14.0 mph 71% 0.00 in
08:49 24.3 °F 16.6 °F 29.96 in WNW 10.0 mph 18.0 mph 72% 0.00 in
08:54 24.5 °F 16.8 °F 29.96 in West 14.0 mph 18.0 mph 72% 0.00 in
08:59 24.7 °F 17.0 °F 29.96 in NW 9.0 mph 17.0 mph 72% 0.00 in
09:04 24.9 °F 16.5 °F 29.96 in West 8.0 mph 17.0 mph 70% 0.00 in
09:09 24.8 °F 16.4 °F 29.96 in West 11.0 mph 19.0 mph 70% 0.00 in
09:14 24.8 °F 16.1 °F 29.97 in West 11.0 mph 21.0 mph 69% 0.00 in
09:19 24.9 °F 16.2 °F 29.97 in West 12.0 mph 21.0 mph 69% 0.00 in
09:24 25.4 °F 17.0 °F 29.97 in West 11.0 mph 21.0 mph 70% 0.00 in
09:29 25.6 °F 16.8 °F 29.98 in WNW 9.0 mph 18.0 mph 69% 0.00 in
09:34 25.2 °F 16.5 °F 29.98 in WNW 10.0 mph 22.0 mph 69% 0.00 in
09:39 25.6 °F 16.8 °F 29.98 in WSW 7.0 mph 18.0 mph 69% 0.00 in
09:44 26.0 °F 16.9 °F 29.99 in WNW 12.0 mph 19.0 mph 68% 0.00 in
09:49 26.0 °F 17.2 °F 29.99 in WNW 8.0 mph 19.0 mph 69% 0.00 in
09:54 26.7 °F 17.2 °F 29.99 in WSW 7.0 mph 17.0 mph 67% 0.00 in
09:59 27.3 °F 17.4 °F 30.00 in West 6.0 mph 21.0 mph 66% 0.00 in
10:04 27.0 °F 16.8 °F 30.00 in West 5.0 mph 15.0 mph 65% 0.00 in
10:09 27.7 °F 17.5 °F 30.00 in NW 5.0 mph 16.0 mph 65% 0.00 in
10:14 27.8 °F 16.5 °F 30.00 in SW 5.0 mph 20.0 mph 62% 0.00 in
10:19 27.8 °F 16.8 °F 30.00 in West 12.0 mph 16.0 mph 63% 0.00 in
10:24 27.6 °F 16.6 °F 30.00 in West 10.0 mph 21.0 mph 63% 0.00 in
10:29 27.5 °F 16.5 °F 30.00 in West 10.0 mph 21.0 mph 63% 0.00 in
10:34 28.2 °F 18.3 °F 30.00 in West 9.0 mph 17.0 mph 66% 0.00 in
10:39 29.1 °F 18.8 °F 30.00 in West 9.0 mph 18.0 mph 65% 0.00 in
10:44 29.2 °F 18.9 °F 30.00 in WNW 5.0 mph 17.0 mph 65% 0.00 in
10:49 30.2 °F 20.2 °F 30.00 in West 8.0 mph 15.0 mph 66% 0.00 in
10:54 30.3 °F 18.8 °F 30.01 in West 8.0 mph 16.0 mph 62% 0.00 in
10:59 30.8 °F 18.9 °F 30.01 in WSW 9.0 mph 14.0 mph 61% 0.00 in
11:04 31.4 °F 19.5 °F 30.01 in West 3.0 mph 16.0 mph 61% 0.00 in
11:09 31.3 °F 17.8 °F 30.01 in WNW 6.0 mph 15.0 mph 57% 0.00 in
11:14 30.9 °F 17.4 °F 30.01 in WSW 2.0 mph 17.0 mph 57% 0.00 in
11:19 33.0 °F 21.8 °F 30.01 in West 5.0 mph 13.0 mph 63% 0.00 in
11:24 31.4 °F 18.7 °F 30.01 in WNW 7.0 mph 16.0 mph 59% 0.00 in
11:29 30.4 °F 17.4 °F 30.02 in WNW 8.0 mph 16.0 mph 58% 0.00 in
11:34 30.7 °F 17.7 °F 30.02 in WNW 4.0 mph 16.0 mph 58% 0.00 in
11:39 31.3 °F 18.2 °F 30.02 in West 9.0 mph 17.0 mph 58% 0.00 in
11:44 31.0 °F 17.5 °F 30.02 in West 8.0 mph 19.0 mph 57% 0.00 in
11:49 31.5 °F 18.8 °F 30.02 in West 8.0 mph 19.0 mph 59% 0.00 in
11:54 32.4 °F 18.8 °F 30.03 in West 8.0 mph 19.0 mph 57% 0.00 in
11:59 32.4 °F 17.2 °F 30.03 in SW 6.0 mph 16.0 mph 53% 0.00 in
12:04 31.8 °F 17.0 °F 30.03 in SW 6.0 mph 16.0 mph 54% 0.00 in
12:09 30.8 °F 14.8 °F 30.04 in West 7.0 mph 23.0 mph 51% 0.00 in
12:14 31.4 °F 15.8 °F 30.04 in NW 7.0 mph 14.0 mph 52% 0.00 in
12:19 31.0 °F 15.4 °F 30.04 in West 9.0 mph 19.0 mph 52% 0.00 in
12:24 31.4 °F 17.1 °F 30.04 in West 11.0 mph 18.0 mph 55% 0.00 in
12:29 31.6 °F 16.4 °F 30.04 in WSW 8.0 mph 18.0 mph 53% 0.00 in
12:34 31.2 °F 15.2 °F 30.04 in West 8.0 mph 18.0 mph 51% 0.00 in
12:39 31.6 °F 16.4 °F 30.04 in West 9.0 mph 15.0 mph 53% 0.00 in
12:44 31.4 °F 14.4 °F 30.04 in West 8.0 mph 17.0 mph 49% 0.00 in
12:49 31.2 °F 15.6 °F 30.04 in West 9.0 mph 17.0 mph 52% 0.00 in
12:54 31.0 °F 15.4 °F 30.04 in WNW 10.0 mph 19.0 mph 52% 0.00 in
12:59 31.6 °F 16.4 °F 30.04 in WSW 7.0 mph 20.0 mph 53% 0.00 in
13:04 30.9 °F 15.3 °F 30.04 in WNW 7.0 mph 16.0 mph 52% 0.00 in
13:09 31.7 °F 16.5 °F 30.04 in NW 10.0 mph 16.0 mph 53% 0.00 in
13:14 31.5 °F 17.2 °F 30.04 in WSW 8.0 mph 15.0 mph 55% 0.00 in
13:19 32.1 °F 15.5 °F 30.04 in WSW 9.0 mph 15.0 mph 50% 0.00 in
13:24 32.6 °F 16.4 °F 30.04 in West 10.0 mph 18.0 mph 51% 0.00 in
13:29 31.6 °F 15.1 °F 30.04 in WNW 8.0 mph 18.0 mph 50% 0.00 in
13:34 30.5 °F 14.9 °F 30.05 in West 9.0 mph 15.0 mph 52% 0.00 in
13:39 30.9 °F 16.6 °F 30.05 in West 8.0 mph 15.0 mph 55% 0.00 in
13:44 30.4 °F 15.3 °F 30.05 in WNW 8.0 mph 15.0 mph 53% 0.00 in
13:49 30.2 °F 16.0 °F 30.05 in WNW 9.0 mph 17.0 mph 55% 0.00 in
13:54 31.3 °F 16.1 °F 30.05 in WNW 9.0 mph 19.0 mph 53% 0.00 in
13:59 31.6 °F 15.1 °F 30.06 in WNW 9.0 mph 19.0 mph 50% 0.00 in
14:04 30.4 °F 15.3 °F 30.06 in West 6.0 mph 18.0 mph 53% 0.00 in
14:09 30.3 °F 16.5 °F 30.06 in West 7.0 mph 18.0 mph 56% 0.00 in
14:14 30.4 °F 15.7 °F 30.06 in WSW 9.0 mph 19.0 mph 54% 0.00 in
14:19 30.3 °F 16.5 °F 30.06 in SW 9.0 mph 15.0 mph 56% 0.00 in
14:24 30.5 °F 16.7 °F 30.06 in West 6.0 mph 19.0 mph 56% 0.00 in
14:29 31.3 °F 17.8 °F 30.06 in West 7.0 mph 15.0 mph 57% 0.00 in
14:34 30.5 °F 15.4 °F 30.06 in West 10.0 mph 17.0 mph 53% 0.00 in
14:39 29.9 °F 15.3 °F 30.06 in West 9.0 mph 17.0 mph 54% 0.00 in
14:44 31.0 °F 15.8 °F 30.06 in West 9.0 mph 17.0 mph 53% 0.00 in
14:49 30.6 °F 15.0 °F 30.07 in West 9.0 mph 17.0 mph 52% 0.00 in
14:54 30.8 °F 16.9 °F 30.06 in West 8.0 mph 16.0 mph 56% 0.00 in
14:59 31.1 °F 17.2 °F 30.07 in West 7.0 mph 14.0 mph 56% 0.00 in
15:04 30.5 °F 15.8 °F 30.07 in NW 13.0 mph 17.0 mph 54% 0.00 in
15:09 30.8 °F 16.5 °F 30.07 in West 9.0 mph 17.0 mph 55% 0.00 in
15:14 30.7 °F 16.4 °F 30.08 in WNW 8.0 mph 15.0 mph 55% 0.00 in
15:19 30.2 °F 16.0 °F 30.08 in NNW 6.0 mph 14.0 mph 55% 0.00 in
15:24 30.3 °F 16.0 °F 30.08 in West 3.0 mph 11.0 mph 55% 0.00 in
15:29 29.9 °F 15.7 °F 30.08 in WSW 9.0 mph 16.0 mph 55% 0.00 in
15:34 29.9 °F 15.7 °F 30.08 in West 12.0 mph 17.0 mph 55% 0.00 in
15:39 29.9 °F 15.7 °F 30.08 in WSW 3.0 mph 16.0 mph 55% 0.00 in
15:44 30.1 °F 17.1 °F 30.08 in West 7.0 mph 16.0 mph 58% 0.00 in
15:49 29.9 °F 16.9 °F 30.08 in West 7.0 mph 14.0 mph 58% 0.00 in
15:54 29.6 °F 17.4 °F 30.08 in WSW 6.0 mph 16.0 mph 60% 0.00 in
15:59 29.4 °F 18.7 °F 30.08 in West 5.0 mph 17.0 mph 64% 0.00 in
16:04 29.4 °F 19.4 °F 30.08 in West 5.0 mph 13.0 mph 66% 0.00 in
16:09 29.3 °F 18.6 °F 30.09 in SW 9.0 mph 15.0 mph 64% 0.00 in
16:19 28.9 °F 19.0 °F 30.09 in WSW 9.0 mph 17.0 mph 66% 0.00 in
16:24 28.9 °F 19.0 °F 30.09 in WSW 8.0 mph 16.0 mph 66% 0.00 in
16:29 29.0 °F 19.4 °F 30.09 in WSW 8.0 mph 16.0 mph 67% 0.00 in
16:34 28.7 °F 18.8 °F 30.09 in WSW 8.0 mph 17.0 mph 66% 0.00 in
16:39 28.5 °F 18.9 °F 30.10 in SW 7.0 mph 16.0 mph 67% 0.00 in
16:44 28.0 °F 18.8 °F 30.10 in West 8.0 mph 16.0 mph 68% 0.00 in
16:49 27.9 °F 19.0 °F 30.10 in SW 8.0 mph 18.0 mph 69% 0.00 in
16:54 27.8 °F 18.9 °F 30.10 in West 6.0 mph 17.0 mph 69% 0.00 in
16:59 27.9 °F 19.0 °F 30.10 in WNW 7.0 mph 15.0 mph 69% 0.00 in
17:04 28.0 °F 18.5 °F 30.11 in SW 4.0 mph 14.0 mph 67% 0.00 in
17:09 28.0 °F 18.5 °F 30.11 in NW 5.0 mph 13.0 mph 67% 0.00 in
17:14 27.8 °F 18.3 °F 30.11 in West 10.0 mph 15.0 mph 67% 0.00 in
17:19 27.8 °F 18.3 °F 30.11 in West 8.0 mph 19.0 mph 67% 0.00 in
17:24 27.6 °F 17.7 °F 30.12 in West 9.0 mph 19.0 mph 66% 0.00 in
17:29 27.5 °F 18.0 °F 30.12 in WSW 8.0 mph 16.0 mph 67% 0.00 in
17:34 27.5 °F 18.0 °F 30.12 in WSW 7.0 mph 13.0 mph 67% 0.00 in
17:39 27.5 °F 18.0 °F 30.13 in West 6.0 mph 15.0 mph 67% 0.00 in
17:44 27.2 °F 17.7 °F 30.13 in West 8.0 mph 14.0 mph 67% 0.00 in
17:49 27.0 °F 17.5 °F 30.13 in WNW 14.0 mph 15.0 mph 67% 0.00 in
17:54 26.9 °F 17.7 °F 30.13 in West 8.0 mph 16.0 mph 68% 0.00 in
17:59 26.9 °F 18.1 °F 30.13 in West 8.0 mph 17.0 mph 69% 0.00 in
18:04 26.9 °F 18.1 °F 30.13 in WSW 8.0 mph 13.0 mph 69% 0.00 in
18:09 26.8 °F 17.6 °F 30.14 in SW 5.0 mph 15.0 mph 68% 0.00 in
18:14 27.0 °F 18.2 °F 30.14 in West 11.0 mph 19.0 mph 69% 0.00 in
18:19 26.9 °F 17.4 °F 30.14 in West 8.0 mph 15.0 mph 67% 0.00 in
18:24 26.9 °F 17.4 °F 30.15 in West 7.0 mph 15.0 mph 67% 0.00 in
18:29 26.9 °F 17.4 °F 30.15 in West 6.0 mph 12.0 mph 67% 0.00 in
18:34 26.9 °F 17.0 °F 30.15 in West 6.0 mph 12.0 mph 66% 0.00 in
18:39 26.9 °F 17.0 °F 30.15 in WSW 6.0 mph 12.0 mph 66% 0.00 in
18:44 26.9 °F 16.7 °F 30.16 in West 7.0 mph 16.0 mph 65% 0.00 in
18:49 26.8 °F 15.1 °F 30.16 in NW 6.0 mph 17.0 mph 61% 0.00 in
18:54 26.8 °F 15.5 °F 30.16 in West 14.0 mph 19.0 mph 62% 0.00 in
18:59 26.8 °F 15.9 °F 30.17 in West 8.0 mph 19.0 mph 63% 0.00 in
19:04 26.7 °F 16.1 °F 30.17 in West 8.0 mph 17.0 mph 64% 0.00 in
19:09 26.6 °F 16.1 °F 30.17 in West 5.0 mph 16.0 mph 64% 0.00 in
19:14 26.6 °F 16.4 °F 30.17 in West 4.0 mph 12.0 mph 65% 0.00 in
19:19 26.5 °F 15.6 °F 30.18 in West 6.0 mph 15.0 mph 63% 0.00 in
19:24 26.5 °F 15.2 °F 30.18 in WSW 7.0 mph 14.0 mph 62% 0.00 in
19:29 26.4 °F 14.8 °F 30.18 in West 8.0 mph 14.0 mph 61% 0.00 in
19:34 26.4 °F 14.8 °F 30.18 in West 8.0 mph 15.0 mph 61% 0.00 in
19:39 26.3 °F 14.7 °F 30.18 in West 8.0 mph 15.0 mph 61% 0.00 in
19:44 26.1 °F 14.5 °F 30.18 in West 7.0 mph 18.0 mph 61% 0.00 in
19:49 26.1 °F 14.8 °F 30.19 in West 8.0 mph 14.0 mph 62% 0.00 in
19:54 26.1 °F 14.8 °F 30.19 in WSW 9.0 mph 17.0 mph 62% 0.00 in
19:59 26.0 °F 14.8 °F 30.19 in West 8.0 mph 17.0 mph 62% 0.00 in
20:04 25.9 °F 15.0 °F 30.19 in West 8.0 mph 16.0 mph 63% 0.00 in
20:09 25.8 °F 14.6 °F 30.20 in West 7.0 mph 13.0 mph 62% 0.00 in
20:14 25.7 °F 14.8 °F 30.20 in WNW 11.0 mph 15.0 mph 63% 0.00 in
20:19 25.6 °F 14.7 °F 30.20 in West 10.0 mph 12.0 mph 63% 0.00 in
20:24 25.5 °F 14.3 °F 30.20 in West 4.0 mph 14.0 mph 62% 0.00 in
20:29 25.4 °F 14.2 °F 30.20 in WNW 5.0 mph 12.0 mph 62% 0.00 in
20:34 25.4 °F 14.5 °F 30.20 in West 7.0 mph 13.0 mph 63% 0.00 in
20:39 25.2 °F 14.4 °F 30.20 in West 6.0 mph 13.0 mph 63% 0.00 in
20:44 25.1 °F 14.3 °F 30.20 in West 6.0 mph 12.0 mph 63% 0.00 in
20:49 25.0 °F 14.2 °F 30.20 in West 7.0 mph 16.0 mph 63% 0.00 in
20:54 25.1 °F 14.6 °F 30.21 in West 7.0 mph 16.0 mph 64% 0.00 in
20:59 25.0 °F 14.5 °F 30.21 in West 2.0 mph 13.0 mph 64% 0.00 in
21:04 25.0 °F 14.5 °F 30.21 in West 6.0 mph 15.0 mph 64% 0.00 in
21:09 24.9 °F 14.1 °F 30.21 in West 10.0 mph 15.0 mph 63% 0.00 in
21:14 24.8 °F 13.6 °F 30.21 in WNW 12.0 mph 15.0 mph 62% 0.00 in
21:19 24.7 °F 13.9 °F 30.21 in North 7.0 mph 15.0 mph 63% 0.00 in
21:24 24.7 °F 13.9 °F 30.22 in WSW 9.0 mph 11.0 mph 63% 0.00 in
21:29 24.6 °F 13.8 °F 30.22 in SW 6.0 mph 13.0 mph 63% 0.00 in
21:34 24.5 °F 13.7 °F 30.22 in West 7.0 mph 14.0 mph 63% 0.00 in
21:39 24.4 °F 13.6 °F 30.22 in WNW 7.0 mph 16.0 mph 63% 0.00 in
21:44 24.3 °F 13.1 °F 30.22 in WNW 8.0 mph 16.0 mph 62% 0.00 in
21:49 24.3 °F 13.5 °F 30.22 in WNW 5.0 mph 13.0 mph 63% 0.00 in
21:54 24.2 °F 13.4 °F 30.22 in NW 6.0 mph 15.0 mph 63% 0.00 in
21:59 24.0 °F 13.2 °F 30.22 in SW 3.0 mph 15.0 mph 63% 0.00 in
22:04 23.9 °F 13.5 °F 30.22 in WNW 3.0 mph 13.0 mph 64% 0.00 in
22:09 23.7 °F 13.3 °F 30.22 in WNW 7.0 mph 13.0 mph 64% 0.00 in
22:14 23.6 °F 13.5 °F 30.22 in WNW 7.0 mph 13.0 mph 65% 0.00 in
22:19 23.4 °F 13.4 °F 30.22 in WNW 6.0 mph 12.0 mph 65% 0.00 in
22:24 23.4 °F 13.7 °F 30.22 in West 5.0 mph 9.0 mph 66% 0.00 in
22:29 23.4 °F 13.7 °F 30.22 in WNW 3.0 mph 9.0 mph 66% 0.00 in
22:34 23.4 °F 13.7 °F 30.22 in NW 4.0 mph 9.0 mph 66% 0.00 in
22:39 23.4 °F 13.7 °F 30.22 in WNW 5.0 mph 11.0 mph 66% 0.00 in
22:44 23.5 °F 13.8 °F 30.22 in WNW 5.0 mph 11.0 mph 66% 0.00 in
22:49 23.5 °F 13.5 °F 30.22 in WNW 11.0 mph 11.0 mph 65% 0.00 in
22:54 23.5 °F 13.5 °F 30.22 in NW 7.0 mph 11.0 mph 65% 0.00 in
22:59 23.4 °F 13.4 °F 30.22 in West 7.0 mph 10.0 mph 65% 0.00 in
23:04 23.2 °F 13.2 °F 30.22 in NW 2.0 mph 11.0 mph 65% 0.00 in
23:09 23.1 °F 13.1 °F 30.22 in WNW 5.0 mph 11.0 mph 65% 0.00 in
23:14 23.1 °F 12.7 °F 30.22 in NW 4.0 mph 9.0 mph 64% 0.00 in
23:19 23.0 °F 12.6 °F 30.22 in NW 4.0 mph 8.0 mph 64% 0.00 in
23:24 22.9 °F 12.5 °F 30.22 in NW 4.0 mph 12.0 mph 64% 0.00 in
23:29 22.7 °F 12.7 °F 30.22 in NW 5.0 mph 12.0 mph 65% 0.00 in
23:34 22.7 °F 12.7 °F 30.22 in NNW 4.0 mph 8.0 mph 65% 0.00 in
23:39 22.7 °F 12.7 °F 30.23 in WNW 2.0 mph 8.0 mph 65% 0.00 in
23:44 22.7 °F 13.0 °F 30.23 in NW 4.0 mph 6.0 mph 66% 0.00 in
23:49 22.8 °F 13.1 °F 30.22 in WNW 3.0 mph 8.0 mph 66% 0.00 in
23:54 22.9 °F 13.2 °F 30.22 in WNW 4.0 mph 9.0 mph 66% 0.00 in
23:59 23.0 °F 13.3 °F 30.22 in NW 1.0 mph 6.0 mph 66% 0.00 in
Buffalo, New York, USA
Compliments of Weather Underground - 2.5 mb